createdAt,value
2019-03-30T00:01:09.683Z,41.90
2019-03-30T00:03:38.211Z,41.40
2019-03-30T00:06:06.674Z,41.40
2019-03-30T00:08:35.155Z,41.40
2019-03-30T00:11:03.686Z,41.30
2019-03-30T00:13:32.197Z,41.20
2019-03-30T00:16:00.796Z,41.20
2019-03-30T00:18:29.243Z,41.30
2019-03-30T00:20:57.722Z,42.20
2019-03-30T00:23:26.163Z,41.70
2019-03-30T00:25:54.646Z,40.60
2019-03-30T00:28:23.098Z,40.60
2019-03-30T00:30:52.365Z,40.70
2019-03-30T00:33:20.809Z,42.40
2019-03-30T00:35:49.269Z,42.70
2019-03-30T00:38:17.935Z,43.00
2019-03-30T00:40:46.422Z,43.20
2019-03-30T00:43:14.899Z,43.50
2019-03-30T00:45:43.499Z,42.80
2019-03-30T00:48:11.968Z,43.50
2019-03-30T00:50:40.444Z,43.70
2019-03-30T00:53:08.955Z,43.90
2019-03-30T00:55:37.678Z,44.00
2019-03-30T00:58:06.118Z,44.30
2019-03-30T01:00:34.890Z,44.30
2019-03-30T01:03:03.424Z,44.60
2019-03-30T01:05:31.896Z,44.70
2019-03-30T01:08:00.345Z,44.80
2019-03-30T01:10:48.157Z,44.80
2019-03-30T01:13:16.595Z,44.30
2019-03-30T01:15:45.147Z,45.20
2019-03-30T01:18:13.581Z,45.50
2019-03-30T01:20:42.059Z,45.80
2019-03-30T01:23:10.667Z,45.60
2019-03-30T01:25:39.142Z,45.60
2019-03-30T01:28:07.609Z,45.70
2019-03-30T01:30:36.225Z,45.60
2019-03-30T01:33:04.694Z,45.80
2019-03-30T01:35:33.165Z,46.00
2019-03-30T01:38:01.631Z,46.20
2019-03-30T01:40:30.119Z,46.30
2019-03-30T01:42:58.631Z,46.50
2019-03-30T01:45:27.095Z,46.60
2019-03-30T01:47:55.562Z,46.80
2019-03-30T01:50:24.021Z,46.80
2019-03-30T01:52:52.459Z,47.10
2019-03-30T01:55:20.998Z,47.30
2019-03-30T01:57:49.955Z,47.50
2019-03-30T02:00:19.514Z,47.60
2019-03-30T02:02:47.966Z,47.80
2019-03-30T02:05:16.697Z,47.90
2019-03-30T02:07:45.152Z,48.00
2019-03-30T02:10:15.518Z,48.20
2019-03-30T02:12:43.967Z,48.30
2019-03-30T02:15:12.783Z,48.50
2019-03-30T02:17:41.328Z,48.60
2019-03-30T02:20:12.945Z,48.60
2019-03-30T02:22:41.400Z,49.10
2019-03-30T02:25:10.046Z,48.70
2019-03-30T02:27:38.575Z,48.80
2019-03-30T02:30:07.489Z,49.30
2019-03-30T02:32:36.004Z,48.90
2019-03-30T02:35:06.723Z,48.90
2019-03-30T02:37:35.173Z,48.90
2019-03-30T02:40:04.794Z,49.00
2019-03-30T02:42:33.363Z,49.00
2019-03-30T02:45:01.901Z,49.00
2019-03-30T02:47:30.419Z,49.10
2019-03-30T02:49:58.996Z,49.20
2019-03-30T02:52:27.539Z,49.30
2019-03-30T02:54:56.021Z,49.30
2019-03-30T02:57:24.486Z,49.40
2019-03-30T02:59:52.931Z,49.50
2019-03-30T03:02:21.414Z,49.60
2019-03-30T03:04:49.984Z,49.80
2019-03-30T03:07:18.452Z,49.80
2019-03-30T03:09:46.900Z,50.00
2019-03-30T03:12:15.377Z,50.10
2019-03-30T03:14:43.897Z,49.40
2019-03-30T03:17:12.440Z,50.20
2019-03-30T03:19:40.939Z,50.20
2019-03-30T03:22:09.447Z,50.40
2019-03-30T03:24:38.020Z,50.50
2019-03-30T03:27:06.500Z,50.40
2019-03-30T03:29:34.997Z,50.50
2019-03-30T03:32:03.576Z,50.70
2019-03-30T03:34:32.215Z,50.60
2019-03-30T03:37:00.734Z,50.60
2019-03-30T03:39:29.196Z,50.80
2019-03-30T03:41:57.760Z,50.90
2019-03-30T03:44:26.284Z,51.00
2019-03-30T03:46:54.853Z,49.90
2019-03-30T03:49:23.333Z,50.80
2019-03-30T03:51:52.095Z,50.90
2019-03-30T03:54:40.537Z,51.10
2019-03-30T03:57:11.895Z,50.50
2019-03-30T03:59:41.159Z,51.10
2019-03-30T04:02:30.551Z,51.10
2019-03-30T04:05:01.024Z,51.10
2019-03-30T04:07:32.582Z,51.70
2019-03-30T04:10:02.815Z,51.10
2019-03-30T04:12:34.481Z,51.30
2019-03-30T04:15:05.599Z,51.20
2019-03-30T04:17:34.264Z,51.30
2019-03-30T04:20:02.792Z,51.30
2019-03-30T04:22:31.387Z,51.40
2019-03-30T04:24:59.844Z,51.60
2019-03-30T04:27:28.388Z,51.10
2019-03-30T04:29:56.876Z,51.60
2019-03-30T04:32:25.348Z,51.70
2019-03-30T04:34:54.707Z,51.70
2019-03-30T04:37:23.176Z,51.70
2019-03-30T04:39:51.661Z,51.80
2019-03-30T04:42:20.212Z,51.80
2019-03-30T04:44:48.669Z,51.80
2019-03-30T04:47:17.243Z,51.80
2019-03-30T04:49:45.719Z,52.00
2019-03-30T04:52:14.283Z,52.40
2019-03-30T04:54:42.863Z,51.90
2019-03-30T04:57:11.338Z,52.50
2019-03-30T04:59:39.786Z,52.10
2019-03-30T05:02:08.298Z,51.90
2019-03-30T05:04:36.764Z,52.00
2019-03-30T05:07:05.300Z,51.90
2019-03-30T05:09:33.810Z,51.90
2019-03-30T05:12:02.292Z,52.00
2019-03-30T05:14:30.809Z,52.10
2019-03-30T05:16:59.343Z,51.90
2019-03-30T05:19:27.791Z,51.90
2019-03-30T05:21:56.266Z,51.90
2019-03-30T05:24:24.712Z,51.90
2019-03-30T05:26:53.295Z,52.00
2019-03-30T05:29:21.933Z,52.10
2019-03-30T05:31:53.035Z,52.20
2019-03-30T05:34:21.490Z,52.00
2019-03-30T05:36:49.951Z,52.00
2019-03-30T05:39:18.432Z,51.70
2019-03-30T05:41:46.879Z,51.60
2019-03-30T05:44:15.357Z,51.10
2019-03-30T05:46:43.880Z,51.00
2019-03-30T05:49:12.359Z,50.90
2019-03-30T05:51:40.818Z,51.20
2019-03-30T05:54:09.343Z,50.90
2019-03-30T05:56:37.775Z,50.90
2019-03-30T05:59:06.245Z,51.20
2019-03-30T06:01:34.697Z,52.10
2019-03-30T06:04:03.151Z,53.30
2019-03-30T06:06:32.010Z,53.90
2019-03-30T06:09:00.623Z,54.30
2019-03-30T06:11:29.110Z,54.10
2019-03-30T06:13:57.579Z,54.40
2019-03-30T06:16:26.017Z,54.40
2019-03-30T06:18:54.473Z,54.80
2019-03-30T06:21:22.903Z,55.10
2019-03-30T06:23:51.361Z,54.10
2019-03-30T06:26:19.968Z,53.80
2019-03-30T06:28:48.656Z,53.70
2019-03-30T06:31:17.119Z,53.30
2019-03-30T06:33:45.634Z,53.10
2019-03-30T06:36:14.091Z,52.80
2019-03-30T06:38:42.536Z,52.00
2019-03-30T06:41:11.052Z,51.70
2019-03-30T06:43:39.490Z,51.20
2019-03-30T06:46:07.960Z,50.40
2019-03-30T06:48:36.401Z,49.30
2019-03-30T06:51:04.876Z,48.80
2019-03-30T06:53:33.339Z,47.50
2019-03-30T06:56:01.868Z,46.40
2019-03-30T06:58:30.796Z,46.00
2019-03-30T07:00:59.695Z,45.60
2019-03-30T07:03:28.387Z,44.50
2019-03-30T07:05:58.047Z,44.10
2019-03-30T07:08:28.528Z,42.60
2019-03-30T07:10:58.611Z,41.90
2019-03-30T07:13:28.497Z,40.60
2019-03-30T07:15:59.416Z,40.00
2019-03-30T07:18:28.404Z,38.30
2019-03-30T07:20:56.871Z,38.50
2019-03-30T07:23:26.334Z,37.70
2019-03-30T07:25:55.370Z,37.80
2019-03-30T07:28:23.977Z,37.60
2019-03-30T07:30:52.449Z,36.80
2019-03-30T07:33:20.899Z,35.50
2019-03-30T07:35:49.449Z,34.00
2019-03-30T07:38:17.955Z,33.70
2019-03-30T07:40:46.409Z,33.80
2019-03-30T07:43:14.855Z,32.20
2019-03-30T07:45:43.379Z,32.80
2019-03-30T07:48:11.818Z,32.50
2019-03-30T07:50:40.259Z,32.00
2019-03-30T07:53:09.700Z,30.40
2019-03-30T07:55:38.316Z,31.30
2019-03-30T07:58:06.823Z,31.60
2019-03-30T08:00:35.383Z,31.10
2019-03-30T08:03:04.144Z,30.80
2019-03-30T08:05:32.637Z,31.90
2019-03-30T08:08:01.113Z,31.30
2019-03-30T08:10:29.578Z,31.50
2019-03-30T08:12:58.264Z,30.00
2019-03-30T08:15:26.784Z,29.70
2019-03-30T08:17:55.259Z,28.80
2019-03-30T08:20:23.770Z,28.60
2019-03-30T08:22:52.539Z,28.10
2019-03-30T08:25:20.986Z,27.90
2019-03-30T08:27:49.443Z,27.80
2019-03-30T08:30:17.962Z,26.80
2019-03-30T08:32:46.439Z,26.70
2019-03-30T08:35:14.883Z,25.30
2019-03-30T08:37:43.375Z,25.70
2019-03-30T08:40:12.182Z,24.90
2019-03-30T08:42:40.716Z,25.30
2019-03-30T08:45:09.534Z,25.60
2019-03-30T08:47:38.002Z,26.00
2019-03-30T08:50:08.876Z,26.10
2019-03-30T08:52:37.331Z,26.00
2019-03-30T08:55:08.023Z,26.00
2019-03-30T08:57:36.844Z,26.30
2019-03-30T09:00:06.746Z,25.80
2019-03-30T09:02:35.310Z,25.90
2019-03-30T09:05:05.762Z,25.30
2019-03-30T09:07:34.214Z,25.30
2019-03-30T09:10:03.135Z,24.40
2019-03-30T09:12:31.579Z,24.80
2019-03-30T09:15:00.278Z,24.50
2019-03-30T09:17:28.987Z,24.50
2019-03-30T09:19:57.451Z,24.50
2019-03-30T09:22:25.895Z,24.30
2019-03-30T09:24:55.682Z,24.60
2019-03-30T09:27:24.131Z,24.80
2019-03-30T09:29:52.599Z,25.10
2019-03-30T09:32:21.049Z,25.20
2019-03-30T09:34:49.531Z,25.20
2019-03-30T09:37:18.056Z,23.80
2019-03-30T09:39:46.544Z,24.60
2019-03-30T09:42:14.998Z,24.50
2019-03-30T09:44:43.483Z,23.70
2019-03-30T09:47:11.930Z,23.10
2019-03-30T09:49:40.494Z,22.90
2019-03-30T09:52:08.946Z,23.20
2019-03-30T09:54:37.405Z,24.20
2019-03-30T09:57:05.883Z,24.50
2019-03-30T09:59:34.463Z,24.30
2019-03-30T10:02:02.904Z,24.10
2019-03-30T10:04:31.384Z,23.40
2019-03-30T10:06:59.834Z,24.00
2019-03-30T10:09:28.299Z,23.00
2019-03-30T10:11:57.292Z,22.50
2019-03-30T10:14:25.759Z,21.70
2019-03-30T10:16:54.204Z,20.50
2019-03-30T10:19:22.687Z,21.20
2019-03-30T10:21:51.124Z,21.60
2019-03-30T10:24:19.745Z,22.50
2019-03-30T10:26:48.215Z,23.70
2019-03-30T10:29:16.679Z,22.70
2019-03-30T10:31:45.130Z,23.10
2019-03-30T10:34:13.610Z,22.10
2019-03-30T10:36:42.047Z,21.20
2019-03-30T10:39:10.512Z,20.80
2019-03-30T10:41:38.968Z,21.00
2019-03-30T10:44:07.417Z,20.50
2019-03-30T10:46:35.961Z,21.60
2019-03-30T10:49:04.475Z,22.00
2019-03-30T10:51:32.938Z,20.00
2019-03-30T10:54:01.484Z,19.60
2019-03-30T10:56:29.951Z,19.90
2019-03-30T10:58:58.398Z,20.20
2019-03-30T11:01:26.868Z,17.10
2019-03-30T11:03:55.308Z,19.00
2019-03-30T11:06:23.783Z,17.50
2019-03-30T11:08:52.255Z,18.80
2019-03-30T11:11:20.723Z,17.10
2019-03-30T11:13:49.241Z,17.00
2019-03-30T11:16:17.716Z,17.00
2019-03-30T11:18:46.164Z,18.50
2019-03-30T11:21:14.634Z,18.30
2019-03-30T11:23:43.084Z,18.30
2019-03-30T11:26:11.598Z,20.00
2019-03-30T11:28:40.055Z,17.90
2019-03-30T11:31:08.612Z,17.00
2019-03-30T11:33:37.136Z,17.80
2019-03-30T11:36:05.657Z,18.10
2019-03-30T11:38:34.096Z,18.10
2019-03-30T11:41:02.834Z,18.80
2019-03-30T11:43:31.276Z,16.90
2019-03-30T11:45:59.726Z,17.80
2019-03-30T11:48:28.180Z,17.30
2019-03-30T11:50:56.648Z,15.50
2019-03-30T11:53:25.104Z,16.20
2019-03-30T11:55:53.583Z,14.90
2019-03-30T11:58:22.093Z,15.80
2019-03-30T12:00:50.560Z,18.10
2019-03-30T12:03:19.006Z,16.40
2019-03-30T12:05:47.475Z,16.70
2019-03-30T12:08:15.927Z,16.40
2019-03-30T12:10:44.386Z,17.30
2019-03-30T12:13:12.839Z,16.90
2019-03-30T12:15:41.313Z,15.10
2019-03-30T12:18:09.827Z,15.80
2019-03-30T12:20:38.290Z,15.80
2019-03-30T12:23:06.739Z,16.10
2019-03-30T12:25:36.261Z,16.40
2019-03-30T12:28:04.957Z,13.90
2019-03-30T12:30:33.499Z,16.60
2019-03-30T12:33:01.959Z,14.90
2019-03-30T12:35:31.004Z,15.40
2019-03-30T12:37:59.454Z,15.40
2019-03-30T12:40:27.906Z,15.80
2019-03-30T12:42:56.348Z,14.30
2019-03-30T12:45:24.898Z,14.10
2019-03-30T12:47:53.327Z,15.30
2019-03-30T12:50:21.796Z,14.50
2019-03-30T12:52:50.240Z,13.80
2019-03-30T12:55:18.783Z,13.30
2019-03-30T12:57:47.319Z,13.40
2019-03-30T13:00:16.190Z,13.50
2019-03-30T13:02:44.655Z,13.10
2019-03-30T13:05:13.165Z,11.60
2019-03-30T13:07:41.631Z,13.90
2019-03-30T13:10:10.280Z,11.20
2019-03-30T13:12:38.755Z,10.80
2019-03-30T13:15:08.015Z,11.60
2019-03-30T13:17:36.489Z,12.20
2019-03-30T13:20:06.370Z,13.10
2019-03-30T13:22:34.883Z,14.20
2019-03-30T13:25:03.800Z,14.90
2019-03-30T13:27:32.404Z,16.60
2019-03-30T13:30:00.866Z,15.10
2019-03-30T13:32:29.329Z,17.10
2019-03-30T13:34:57.764Z,16.70
2019-03-30T13:37:26.243Z,16.40
2019-03-30T13:39:54.749Z,18.10
2019-03-30T13:42:23.255Z,21.20
2019-03-30T13:44:51.732Z,18.90
2019-03-30T13:47:20.365Z,18.40
2019-03-30T13:49:48.834Z,17.60
2019-03-30T13:52:17.325Z,17.40
2019-03-30T13:54:45.763Z,18.40
2019-03-30T13:57:14.231Z,18.40
2019-03-30T13:59:42.709Z,17.30
2019-03-30T14:02:11.171Z,16.00
2019-03-30T14:04:39.616Z,15.80
2019-03-30T14:07:08.098Z,13.90
2019-03-30T14:09:36.609Z,14.60
2019-03-30T14:12:05.131Z,15.00
2019-03-30T14:14:33.573Z,16.20
2019-03-30T14:17:02.036Z,16.00
2019-03-30T14:19:30.467Z,15.30
2019-03-30T14:21:58.915Z,15.30
2019-03-30T14:24:27.351Z,15.10
2019-03-30T14:26:55.803Z,14.60
2019-03-30T14:29:24.237Z,14.70
2019-03-30T14:31:52.736Z,13.70
2019-03-30T14:34:21.252Z,13.90
2019-03-30T14:36:50.151Z,12.70
2019-03-30T14:39:18.725Z,11.90
2019-03-30T14:41:47.180Z,14.10
2019-03-30T14:44:15.619Z,13.90
2019-03-30T14:46:44.090Z,13.00
2019-03-30T14:49:12.539Z,13.10
2019-03-30T14:51:41.001Z,13.10
2019-03-30T14:54:09.427Z,14.40
2019-03-30T14:56:45.398Z,12.80
2019-03-30T14:59:10.501Z,13.20
2019-03-30T15:01:38.259Z,14.40
2019-03-30T15:04:06.698Z,14.90
2019-03-30T15:06:35.158Z,13.20
2019-03-30T15:09:04.739Z,13.60
2019-03-30T15:11:33.203Z,12.80
2019-03-30T15:14:01.639Z,12.80
2019-03-30T15:16:30.095Z,13.30
2019-03-30T15:18:58.545Z,14.80
2019-03-30T15:21:26.984Z,15.70
2019-03-30T15:23:55.438Z,16.90
2019-03-30T15:26:23.888Z,16.10
2019-03-30T15:28:52.347Z,15.60
2019-03-30T15:31:20.808Z,15.80
2019-03-30T15:33:49.276Z,14.40
2019-03-30T15:36:17.737Z,14.20
2019-03-30T15:38:46.223Z,15.80
2019-03-30T15:41:14.667Z,16.20
2019-03-30T15:43:43.135Z,16.00
2019-03-30T15:46:14.295Z,16.10
2019-03-30T15:48:41.813Z,16.40
2019-03-30T15:51:10.256Z,15.00
2019-03-30T15:53:38.716Z,15.10
2019-03-30T15:56:07.232Z,14.90
2019-03-30T15:58:35.866Z,15.80
2019-03-30T16:01:04.433Z,15.00
2019-03-30T16:03:32.923Z,16.10
2019-03-30T16:06:01.402Z,15.30
2019-03-30T16:08:29.989Z,16.50
2019-03-30T16:10:58.429Z,15.20
2019-03-30T16:13:26.882Z,15.80
2019-03-30T16:15:55.323Z,15.60
2019-03-30T16:18:23.866Z,15.50
2019-03-30T16:20:52.377Z,15.80
2019-03-30T16:23:20.887Z,16.10
2019-03-30T16:25:49.357Z,15.50
2019-03-30T16:28:17.837Z,16.40
2019-03-30T16:30:46.303Z,16.10
2019-03-30T16:33:14.740Z,16.20
2019-03-30T16:35:43.190Z,15.80
2019-03-30T16:38:11.667Z,16.40
2019-03-30T16:40:40.124Z,17.00
2019-03-30T16:43:08.738Z,16.30
2019-03-30T16:45:37.242Z,16.50
2019-03-30T16:48:06.008Z,15.90
2019-03-30T16:50:34.791Z,16.20
2019-03-30T16:53:03.364Z,16.50
2019-03-30T16:55:31.826Z,16.80
2019-03-30T16:58:00.412Z,16.70
2019-03-30T17:00:33.267Z,16.70
2019-03-30T17:03:03.944Z,17.10
2019-03-30T17:05:32.419Z,16.70
2019-03-30T17:08:00.919Z,17.40
2019-03-30T17:10:29.376Z,17.70
2019-03-30T17:12:57.940Z,18.10
2019-03-30T17:15:26.494Z,18.30
2019-03-30T17:17:54.942Z,18.30
2019-03-30T17:20:23.545Z,18.40
2019-03-30T17:22:52.002Z,19.20
2019-03-30T17:25:20.524Z,19.10
2019-03-30T17:27:58.264Z,18.90
2019-03-30T17:30:19.131Z,19.50
2019-03-30T17:32:47.912Z,19.90
2019-03-30T17:35:16.411Z,19.80
2019-03-30T17:37:44.879Z,20.60
2019-03-30T17:40:13.382Z,21.80
2019-03-30T17:42:41.943Z,21.70
2019-03-30T17:45:11.320Z,22.10
2019-03-30T17:47:39.843Z,22.80
2019-03-30T17:50:08.932Z,23.10
2019-03-30T17:52:37.493Z,24.20
2019-03-30T17:55:06.467Z,24.70
2019-03-30T17:57:34.933Z,24.50
2019-03-30T18:00:07.879Z,24.70
2019-03-30T18:02:35.244Z,24.90
2019-03-30T18:05:04.266Z,24.40
2019-03-30T18:07:32.761Z,24.60
2019-03-30T18:10:03.471Z,24.80
2019-03-30T18:12:32.308Z,25.70
2019-03-30T18:15:00.747Z,25.60
2019-03-30T18:17:29.280Z,25.50
2019-03-30T18:19:57.746Z,25.30
2019-03-30T18:22:26.557Z,25.90
2019-03-30T18:24:55.093Z,26.20
2019-03-30T18:27:23.740Z,26.50
2019-03-30T18:29:52.175Z,26.60
2019-03-30T18:32:20.811Z,26.90
2019-03-30T18:34:50.324Z,27.00
2019-03-30T18:37:18.976Z,27.20
2019-03-30T18:39:47.438Z,27.30
2019-03-30T18:42:15.896Z,27.60
2019-03-30T18:44:44.402Z,28.30
2019-03-30T18:47:13.047Z,28.10
2019-03-30T18:49:42.700Z,28.50
2019-03-30T18:52:11.397Z,28.90
2019-03-30T18:54:41.776Z,29.00
2019-03-30T18:57:10.260Z,28.90
2019-03-30T18:59:38.697Z,29.20
2019-03-30T19:02:07.153Z,29.20
2019-03-30T19:04:35.685Z,29.20
2019-03-30T19:07:04.147Z,29.50
2019-03-30T19:09:32.716Z,29.50
2019-03-30T19:12:01.156Z,29.80
2019-03-30T19:14:29.616Z,29.60
2019-03-30T19:16:58.066Z,29.70
2019-03-30T19:19:26.532Z,29.90
2019-03-30T19:21:55.063Z,30.00
2019-03-30T19:24:23.607Z,30.00
2019-03-30T19:26:52.071Z,30.30
2019-03-30T19:29:20.519Z,30.40
2019-03-30T19:31:48.975Z,30.60
2019-03-30T19:34:17.505Z,30.70
2019-03-30T19:36:46.034Z,30.00
2019-03-30T19:39:14.883Z,31.40
2019-03-30T19:41:43.355Z,30.90
2019-03-30T19:44:11.853Z,31.30
2019-03-30T19:46:40.306Z,31.40
2019-03-30T19:49:08.837Z,31.70
2019-03-30T19:51:37.358Z,31.60
2019-03-30T19:54:05.848Z,31.70
2019-03-30T19:56:34.283Z,31.80
2019-03-30T19:59:10.683Z,31.70
2019-03-30T20:01:33.252Z,31.80
2019-03-30T20:04:01.727Z,32.00
2019-03-30T20:06:34.130Z,32.10
2019-03-30T20:09:07.377Z,32.20
2019-03-30T20:11:36.018Z,32.40
2019-03-30T20:14:04.731Z,32.70
2019-03-30T20:16:33.341Z,32.90
2019-03-30T20:19:11.860Z,32.90
2019-03-30T20:21:35.879Z,33.00
2019-03-30T20:24:04.484Z,33.10
2019-03-30T20:26:32.991Z,33.20
2019-03-30T20:29:01.495Z,33.30
2019-03-30T20:31:30.059Z,33.40
2019-03-30T20:33:58.827Z,33.30
2019-03-30T20:36:28.821Z,33.40
2019-03-30T20:38:57.265Z,33.70
2019-03-30T20:41:25.727Z,33.70
2019-03-30T20:43:54.190Z,33.90
2019-03-30T20:46:22.650Z,33.80
2019-03-30T20:48:51.173Z,33.80
2019-03-30T20:51:19.707Z,33.80
2019-03-30T20:53:48.154Z,33.90
2019-03-30T20:56:16.723Z,33.90
2019-03-30T20:58:45.158Z,34.00
2019-03-30T21:01:13.680Z,34.20
2019-03-30T21:03:42.204Z,34.40
2019-03-30T21:06:10.655Z,34.30
2019-03-30T21:08:39.161Z,34.40
2019-03-30T21:11:07.687Z,34.40
2019-03-30T21:13:36.127Z,34.40
2019-03-30T21:16:04.762Z,34.60
2019-03-30T21:18:33.234Z,34.60
2019-03-30T21:21:01.775Z,34.70
2019-03-30T21:23:30.215Z,34.70
2019-03-30T21:25:58.681Z,34.90
2019-03-30T21:28:27.114Z,34.90
2019-03-30T21:30:55.579Z,35.00
2019-03-30T21:33:24.035Z,35.10
2019-03-30T21:35:52.851Z,35.10
2019-03-30T21:38:21.356Z,35.20
2019-03-30T21:40:49.827Z,35.30
2019-03-30T21:43:19.843Z,35.30
2019-03-30T21:45:48.567Z,35.40
2019-03-30T21:48:17.026Z,35.40
2019-03-30T21:50:45.507Z,35.50
2019-03-30T21:53:13.976Z,35.50
2019-03-30T21:55:42.410Z,35.50
2019-03-30T21:58:10.962Z,35.50
2019-03-30T22:00:40.351Z,35.60
2019-03-30T22:03:08.958Z,36.50
2019-03-30T22:05:37.474Z,36.00
2019-03-30T22:08:06.745Z,36.10
2019-03-30T22:10:35.261Z,35.90
2019-03-30T22:13:04.567Z,35.90
2019-03-30T22:15:33.063Z,36.30
2019-03-30T22:18:01.546Z,36.40
2019-03-30T22:20:30.039Z,36.30
2019-03-30T22:22:58.529Z,36.60
2019-03-30T22:25:27.028Z,36.80
2019-03-30T22:27:55.479Z,36.80
2019-03-30T22:30:25.322Z,36.90
2019-03-30T22:32:54.072Z,37.00
2019-03-30T22:35:22.518Z,37.10
2019-03-30T22:37:50.974Z,37.00
2019-03-30T22:40:19.413Z,37.30
2019-03-30T22:42:47.916Z,37.40
2019-03-30T22:45:16.508Z,37.40
2019-03-30T22:47:44.969Z,37.50
2019-03-30T22:50:13.673Z,37.60
2019-03-30T22:52:42.201Z,37.80
2019-03-30T22:55:11.008Z,37.90
2019-03-30T22:57:39.524Z,38.00
2019-03-30T23:00:09.714Z,38.30
2019-03-30T23:02:38.224Z,38.10
2019-03-30T23:05:06.836Z,38.30
2019-03-30T23:07:35.264Z,38.40
2019-03-30T23:10:05.756Z,38.40
2019-03-30T23:12:34.203Z,38.50
2019-03-30T23:15:02.671Z,38.60
2019-03-30T23:17:31.131Z,38.60
2019-03-30T23:19:59.605Z,38.80
2019-03-30T23:22:28.063Z,39.50
2019-03-30T23:24:56.528Z,38.80
2019-03-30T23:27:24.987Z,38.90
2019-03-30T23:29:53.522Z,38.90
2019-03-30T23:32:21.955Z,38.90
2019-03-30T23:34:50.418Z,39.00
2019-03-30T23:37:18.862Z,38.70
2019-03-30T23:39:47.342Z,39.00
2019-03-30T23:42:15.839Z,39.10
2019-03-30T23:44:44.307Z,39.10
2019-03-30T23:47:12.743Z,39.10
2019-03-30T23:49:41.283Z,39.20
2019-03-30T23:52:09.720Z,39.40
2019-03-30T23:54:38.278Z,39.30
2019-03-30T23:57:06.795Z,39.40
2019-03-30T23:59:35.240Z,39.40
